Main page
METAR-TAF:

METAR-TAF

Airports :

Linate Airport

Milan, Italy

latitude: 45-26N, longitude: 009-17E, elevation: 107 m

Current weather observation

The report was made 37 minutes ago, at 23:50 UTC
Wind 2 kt from variable directions
Temperature 23°C
Humidity 89%
Pressure 1013 hPa
Visibility 10 km or more

METAR: LIML 132350Z AUTO VRB02KT 9999 BKN240/// 23/21 Q1013

Time: 02:27 (00:27 UTC)

Forecast

The report was made 1 hour and 27 minutes ago, at 23:00 UTC
Forecast valid from 14 at 00 UTC to 14 at 24 UTC
Wind 5 kt from variable directions
Visibility 10 km or more
Few clouds at a height of 4000 ft
Temporary
from 14 at 06 UTC to 14 at 15 UTC
Visibility: 4000 m
thunderstorm, rain

TAF: LIML 132300Z 1400/1424 VRB05KT 9999 FEW040 TEMPO 1406/1415 4000 TSRA

Weather observations and forecasts of more than 4000 airports (METAR and TAF reports).

The available stations are represented by yellow and red dots on the map.

Hover mouse over dot to see the name of the station.

Then click to see weather observations and forecasts.

To change the map : click on the green buttons with a black cross to zoom in, on the green button with a dash to zoom out, or on the green arrows for adjacent maps.


METAR-TAF: